Time;durP1;ratioP1;P1;durP2;ratioP2;P2;SDS_P1;SDS_P2;PMS_P1;PMS_P2;Temp;Humidity;BMP_temperature;BMP_pressure;BME280_temperature;BME280_humidity;BME280_pressure;Samples;Min_cycle;Max_cycle;Signal;HPM_P1;HPM_P2
2023/09/14 00:01:08;;;;;;;6.90;2.50;;;13.30;47.70;;;;;;5100980;28;20055;-58
2023/09/14 00:03:34;;;;;;;7.90;2.60;;;13.10;38.80;;;;;;5100641;28;20028;-58
2023/09/14 00:06:00;;;;;;;7.35;2.47;;;12.80;30.40;;;;;;5100055;28;20105;-59
2023/09/14 00:08:30;;;;;;;6.93;2.13;;;12.70;26.20;;;;;;5101048;28;20044;-58
2023/09/14 00:10:57;;;;;;;5.93;2.38;;;12.70;26.70;;;;;;5099692;28;20086;-57
2023/09/14 00:13:23;;;;;;;8.05;2.65;;;12.60;29.10;;;;;;5101164;28;20044;-59
2023/09/14 00:15:48;;;;;;;6.60;2.85;;;12.70;35.60;;;;;;5099583;28;20051;-59
2023/09/14 00:18:14;;;;;;;7.13;2.50;;;12.90;59.70;;;;;;5100652;28;20044;-59
2023/09/14 00:20:40;;;;;;;8.43;2.60;;;12.90;59.90;;;;;;5100429;28;20040;-58
2023/09/14 00:23:06;;;;;;;7.18;2.75;;;12.90;59.40;;;;;;5099676;28;20036;-58
2023/09/14 00:25:31;;;;;;;9.38;2.42;;;12.90;61.60;;;;;;5100595;28;20127;-57
2023/09/14 00:27:57;;;;;;;7.30;2.40;;;12.90;59.20;;;;;;5098983;28;20075;-57
2023/09/14 00:30:23;;;;;;;6.75;2.33;;;12.90;58.10;;;;;;5100604;28;20066;-58
2023/09/14 00:32:51;;;;;;;9.57;2.70;;;12.90;60.30;;;;;;5099673;28;20047;-62
2023/09/14 00:35:20;;;;;;;6.10;2.25;;;12.90;55.40;;;;;;5100711;28;20052;-58
2023/09/14 00:37:46;;;;;;;7.35;2.30;;;12.90;63.90;;;;;;5100001;28;20163;-58
2023/09/14 00:40:13;;;;;;;6.53;2.53;;;12.90;67.20;;;;;;5099454;28;20036;-57
2023/09/14 00:42:43;;;;;;;6.85;2.60;;;12.80;62.70;;;;;;5099501;28;20035;-58
2023/09/14 00:45:14;;;;;;;10.02;2.40;;;12.80;62.90;;;;;;5098770;28;20047;-58
2023/09/14 00:47:43;;;;;;;8.40;3.20;;;12.80;61.10;;;;;;5100661;28;20059;-58
2023/09/14 00:50:09;;;;;;;5.70;2.45;;;12.80;62.50;;;;;;5099121;28;20044;-57
2023/09/14 00:52:37;;;;;;;6.47;2.35;;;12.80;63.60;;;;;;5099864;28;20072;-58
2023/09/14 00:55:07;;;;;;;7.63;2.40;;;12.80;65.60;;;;;;5099875;28;20067;-57
2023/09/14 00:57:33;;;;;;;6.20;2.10;;;12.80;64.60;;;;;;5098599;28;20040;-58
2023/09/14 00:59:59;;;;;;;7.15;2.50;;;12.90;66.50;;;;;;5099945;28;20126;-58
2023/09/14 01:02:26;;;;;;;6.57;2.40;;;12.80;53.70;;;;;;5098588;28;20103;-58
2023/09/14 01:04:53;;;;;;;7.72;2.28;;;13.00;62.30;;;;;;5100179;28;20092;-58
2023/09/14 01:07:19;;;;;;;5.78;2.42;;;13.00;58.20;;;;;;5098773;28;20052;-57
2023/09/14 01:09:45;;;;;;;10.30;3.22;;;13.00;53.70;;;;;;5099751;28;20036;-59
2023/09/14 01:12:13;;;;;;;5.22;2.50;;;13.10;60.70;;;;;;5099397;28;20115;-57
2023/09/14 01:14:52;;;;;;;10.82;2.63;;;13.10;47.60;;;;;;5098873;28;20040;-58
2023/09/14 01:17:31;;;;;;;7.18;2.40;;;13.00;48.30;;;;;;5099826;28;20068;-58
2023/09/14 01:20:30;;;;;;;6.25;2.20;;;12.90;31.30;;;;;;5098361;28;20557;-58
2023/09/14 01:23:16;;;;;;;8.38;2.58;;;13.00;34.30;;;;;;5098935;28;20032;-58
2023/09/14 01:25:45;;;;;;;7.13;2.42;;;13.00;37.30;;;;;;5099797;28;20399;-58
2023/09/14 01:28:13;;;;;;;7.25;2.45;;;13.00;33.90;;;;;;5098524;28;20073;-57
2023/09/14 01:30:39;;;;;;;7.32;2.45;;;13.10;40.70;;;;;;5099817;28;20676;-58
2023/09/14 01:33:10;;;;;;;6.78;2.38;;;13.10;37.30;;;;;;5098515;28;20047;-57
2023/09/14 01:35:46;;;;;;;7.40;2.70;;;13.20;36.50;;;;;;5098995;28;20135;-57
2023/09/14 01:38:13;;;;;;;8.77;2.58;;;13.30;46.30;;;;;;5099438;28;20313;-57
2023/09/14 01:40:40;;;;;;;7.00;2.47;;;13.30;42.60;;;;;;5098408;28;20470;-59
2023/09/14 01:43:07;;;;;;;6.85;2.20;;;13.30;44.50;;;;;;5099684;28;20056;-58
2023/09/14 01:45:33;;;;;;;11.60;2.38;;;13.30;53.20;;;;;;5098213;28;20047;-58
2023/09/14 01:48:02;;;;;;;5.85;2.30;;;13.40;49.90;;;;;;5099824;28;20048;-58
2023/09/14 01:50:28;;;;;;;7.50;2.53;;;13.40;48.50;;;;;;5097280;28;20039;-58
2023/09/14 01:52:55;;;;;;;9.35;2.40;;;13.40;50.10;;;;;;5098603;28;20508;-58
2023/09/14 01:55:21;;;;;;;5.30;2.28;;;13.50;53.80;;;;;;5102464;28;20055;-58
2023/09/14 01:57:47;;;;;;;6.05;2.00;;;13.40;53.80;;;;;;5102243;28;20102;-58
2023/09/14 02:00:12;;;;;;;6.68;2.40;;;13.50;55.30;;;;;;5103263;28;20055;-57
2023/09/14 02:02:38;;;;;;;6.78;2.25;;;13.50;57.40;;;;;;5102244;28;20060;-58
2023/09/14 02:05:04;;;;;;;7.50;2.40;;;13.40;64.00;;;;;;5102082;28;20040;-58
2023/09/14 02:07:30;;;;;;;7.30;2.13;;;13.50;58.70;;;;;;5102534;28;20071;-58
2023/09/14 02:09:55;;;;;;;5.97;2.15;;;13.50;61.20;;;;;;5102651;28;20044;-58
2023/09/14 02:12:21;;;;;;;5.88;2.22;;;13.50;60.20;;;;;;5102914;28;20101;-58
2023/09/14 02:14:47;;;;;;;8.15;2.55;;;13.50;60.90;;;;;;5101738;28;20064;-59
2023/09/14 02:17:13;;;;;;;8.85;2.72;;;13.50;48.90;;;;;;5103317;28;20096;-57
2023/09/14 02:19:39;;;;;;;9.65;3.67;;;13.50;45.90;;;;;;5101555;28;20071;-60
2023/09/14 02:22:04;;;;;;;7.28;2.30;;;13.40;34.70;;;;;;5103297;28;20043;-59
2023/09/14 02:24:30;;;;;;;8.18;2.47;;;13.40;33.40;;;;;;5102147;28;20429;-58
2023/09/14 02:26:56;;;;;;;6.13;2.40;;;13.20;35.80;;;;;;5102636;28;20036;-58
2023/09/14 02:29:21;;;;;;;7.97;3.17;;;13.10;39.70;;;;;;5102470;28;20040;-58
2023/09/14 02:31:47;;;;;;;8.98;2.33;;;13.10;44.90;;;;;;5101919;28;20076;-58
2023/09/14 02:34:13;;;;;;;9.32;2.75;;;13.10;44.90;;;;;;5102783;28;20040;-58
2023/09/14 02:36:39;;;;;;;6.90;2.55;;;13.20;45.40;;;;;;5101342;28;20065;-57
2023/09/14 02:39:05;;;;;;;8.95;2.42;;;13.20;45.50;;;;;;5102756;28;20036;-56
2023/09/14 02:41:31;;;;;;;8.75;2.78;;;13.20;44.60;;;;;;5101490;28;20057;-59
2023/09/14 02:43:56;;;;;;;8.90;2.67;;;13.20;45.20;;;;;;5102255;28;20040;-57
2023/09/14 02:46:22;;;;;;;6.78;2.63;;;13.20;42.50;;;;;;5101989;28;20119;-57
2023/09/14 02:48:48;;;;;;;7.70;2.97;;;13.10;34.30;;;;;;5101216;28;20067;-56
2023/09/14 02:51:14;;;;;;;8.35;2.35;;;13.00;36.10;;;;;;5102437;28;20568;-56
2023/09/14 02:53:39;;;;;;;6.78;2.40;;;13.00;43.20;;;;;;5100766;28;20044;-56
2023/09/14 02:56:11;;;;;;;7.95;2.22;;;13.00;48.20;;;;;;5102860;28;20093;-56
2023/09/14 02:58:37;;;;;;;8.95;2.38;;;13.00;58.90;;;;;;5101041;28;20064;-56
2023/09/14 03:01:10;;;;;;;8.27;2.75;;;13.00;67.70;;;;;;5101963;28;20046;-56
2023/09/14 03:03:39;;;;;;;9.95;3.22;;;13.10;67.60;;;;;;5101466;28;20090;-56
2023/09/14 03:06:05;;;;;;;8.55;2.83;;;12.90;59.80;;;;;;5099417;28;20123;-56
2023/09/14 03:08:32;;;;;;;9.63;3.13;;;12.90;60.10;;;;;;5102213;28;20423;-56
2023/09/14 03:10:59;;;;;;;7.32;2.65;;;12.90;63.00;;;;;;5100302;28;20699;-56
2023/09/14 03:13:25;;;;;;;8.15;2.35;;;12.90;61.70;;;;;;5101131;28;20052;-56
2023/09/14 03:15:55;;;;;;;9.13;3.60;;;12.80;64.00;;;;;;5101163;28;20047;-54
2023/09/14 03:18:21;;;;;;;8.80;2.78;;;12.80;69.20;;;;;;5101380;28;20048;-56
2023/09/14 03:20:50;;;;;;;9.40;2.88;;;12.80;71.40;;;;;;5101816;28;20039;-56
2023/09/14 03:23:16;;;;;;;7.63;3.30;;;12.70;69.20;;;;;;5099472;28;20044;-56
2023/09/14 03:25:42;;;;;;;7.43;2.97;;;12.70;77.20;;;;;;5101899;28;20510;-56
2023/09/14 03:28:08;;;;;;;6.78;2.67;;;12.70;84.60;;;;;;5100415;28;20040;-57
2023/09/14 03:30:37;;;;;;;6.88;2.97;;;12.70;80.50;;;;;;5101866;28;20040;-57
2023/09/14 03:33:03;;;;;;;8.27;2.63;;;12.70;80.90;;;;;;5100632;28;20975;-58
2023/09/14 03:35:29;;;;;;;7.68;2.75;;;12.60;81.80;;;;;;5099744;28;20036;-58
2023/09/14 03:37:55;;;;;;;7.18;2.80;;;12.50;85.10;;;;;;5100978;28;20040;-58
2023/09/14 03:40:20;;;;;;;5.63;2.67;;;12.50;80.70;;;;;;5100477;28;20032;-57
2023/09/14 03:42:46;;;;;;;6.70;2.70;;;12.40;84.40;;;;;;5101369;28;20044;-54
2023/09/14 03:45:12;;;;;;;8.20;3.42;;;12.30;84.00;;;;;;5100212;28;20044;-58
2023/09/14 03:47:38;;;;;;;6.45;2.63;;;12.20;81.40;;;;;;5101894;28;20040;-58
2023/09/14 03:50:05;;;;;;;6.85;2.88;;;12.20;88.30;;;;;;5100213;28;20047;-58
2023/09/14 03:52:31;;;;;;;8.05;2.88;;;12.20;91.40;;;;;;5100707;28;20048;-57
2023/09/14 03:54:56;;;;;;;5.93;2.72;;;12.10;87.50;;;;;;5100954;28;20098;-57
2023/09/14 03:57:24;;;;;;;12.45;3.17;;;12.10;91.70;;;;;;5100006;28;20036;-58
2023/09/14 03:59:51;;;;;;;6.75;2.50;;;12.10;91.80;;;;;;5101065;28;20078;-55
2023/09/14 04:02:17;;;;;;;6.28;2.50;;;12.00;90.20;;;;;;5099915;28;20059;-58
2023/09/14 04:04:44;;;;;;;7.15;2.47;;;12.00;91.30;;;;;;5101397;28;20040;-57
2023/09/14 04:07:10;;;;;;;8.15;2.78;;;12.00;89.60;;;;;;5100102;28;20040;-58
2023/09/14 04:09:37;;;;;;;7.72;2.78;;;11.90;90.40;;;;;;5100840;28;20048;-56
2023/09/14 04:12:03;;;;;;;7.15;2.92;;;11.90;91.80;;;;;;5099281;28;20045;-56
2023/09/14 04:14:29;;;;;;;7.07;2.90;;;11.90;91.30;;;;;;5099732;28;20395;-58
2023/09/14 04:16:59;;;;;;;7.43;2.63;;;11.80;91.90;;;;;;5100208;28;20063;-58
2023/09/14 04:19:25;;;;;;;7.85;2.72;;;11.80;91.80;;;;;;5098866;28;20063;-58
2023/09/14 04:21:52;;;;;;;6.50;2.75;;;11.70;90.60;;;;;;5100567;28;20048;-58
2023/09/14 04:24:17;;;;;;;9.48;4.75;;;11.80;94.70;;;;;;5099475;28;20044;-57
2023/09/14 04:26:43;;;;;;;8.00;2.90;;;11.80;94.20;;;;;;5098920;28;20060;-57
2023/09/14 04:29:10;;;;;;;7.53;2.92;;;11.70;89.40;;;;;;5100390;28;20048;-56
2023/09/14 04:31:36;;;;;;;6.63;2.83;;;11.70;90.40;;;;;;5099603;28;20039;-58
2023/09/14 04:34:02;;;;;;;6.95;2.80;;;11.70;92.90;;;;;;5100549;28;20111;-57
2023/09/14 04:36:28;;;;;;;7.40;3.17;;;11.70;92.60;;;;;;5097725;28;20059;-57
2023/09/14 04:38:53;;;;;;;7.47;2.83;;;11.70;94.90;;;;;;5100574;28;20048;-58
2023/09/14 04:41:19;;;;;;;7.20;2.78;;;11.80;95.90;;;;;;5099434;28;20047;-57
2023/09/14 04:43:45;;;;;;;8.05;2.75;;;11.70;93.40;;;;;;5100422;28;20507;-56
2023/09/14 04:46:11;;;;;;;8.45;3.00;;;11.70;91.20;;;;;;5099842;28;20040;-57
2023/09/14 04:48:38;;;;;;;8.88;3.10;;;11.70;93.50;;;;;;5099364;28;20718;-57
2023/09/14 04:51:03;;;;;;;11.30;2.67;;;11.70;92.60;;;;;;5099774;28;20416;-57
2023/09/14 04:53:30;;;;;;;7.38;2.70;;;11.70;91.70;;;;;;5098730;28;20070;-58
2023/09/14 04:55:56;;;;;;;7.53;2.80;;;11.60;91.40;;;;;;5100216;28;20094;-57
2023/09/14 04:58:22;;;;;;;8.25;3.10;;;11.50;91.80;;;;;;5098813;28;20047;-58
2023/09/14 05:00:49;;;;;;;9.40;2.97;;;11.40;94.00;;;;;;5100135;28;20403;-57
2023/09/14 05:03:16;;;;;;;7.20;3.00;;;11.50;98.20;;;;;;5098321;28;20081;-56
2023/09/14 05:05:42;;;;;;;5.57;2.78;;;11.40;96.30;;;;;;5099240;28;20115;-58
2023/09/14 05:08:08;;;;;;;8.60;3.00;;;11.30;95.50;;;;;;5099881;28;20115;-56
2023/09/14 05:10:33;;;;;;;7.50;2.95;;;11.30;96.60;;;;;;5098704;28;20043;-57
2023/09/14 05:12:59;;;;;;;7.63;2.97;;;11.30;99.90;;;;;;5099822;28;20056;-57
2023/09/14 05:15:25;;;;;;;8.02;3.28;;;11.20;97.90;;;;;;5098473;28;20169;-58
2023/09/14 05:17:50;;;;;;;8.52;2.65;;;11.30;99.90;;;;;;5099543;28;20039;-57
2023/09/14 05:20:17;;;;;;;7.47;2.88;;;11.30;98.80;;;;;;5098809;28;20036;-62
2023/09/14 05:22:43;;;;;;;9.60;3.45;;;11.40;98.40;;;;;;5099267;28;20052;-58
2023/09/14 05:25:09;;;;;;;9.60;4.18;;;11.40;98.90;;;;;;5099598;28;20040;-56
2023/09/14 05:27:39;;;;;;;6.55;2.95;;;11.40;98.50;;;;;;5098449;28;20048;-57
2023/09/14 05:30:09;;;;;;;9.40;3.03;;;11.50;97.90;;;;;;5104866;28;20051;-60
2023/09/14 05:32:35;;;;;;;8.20;3.38;;;11.50;96.40;;;;;;5105151;28;20600;-57
2023/09/14 05:35:01;;;;;;;8.60;2.97;;;11.50;94.20;;;;;;5106700;28;20054;-57
2023/09/14 05:37:27;;;;;;;6.88;2.83;;;11.50;93.70;;;;;;5105919;28;20055;-56
2023/09/14 05:39:54;;;;;;;8.65;3.10;;;11.60;93.70;;;;;;5105701;28;20368;-58
2023/09/14 05:42:21;;;;;;;5.78;2.70;;;11.60;92.90;;;;;;5106199;28;20044;-56
2023/09/14 05:44:48;;;;;;;8.70;3.10;;;11.60;94.50;;;;;;5103730;28;20118;-57
2023/09/14 05:47:14;;;;;;;6.88;2.50;;;11.70;93.70;;;;;;5106176;28;20036;-56
2023/09/14 05:49:40;;;;;;;11.57;3.00;;;11.70;93.70;;;;;;5104768;28;20431;-57
2023/09/14 05:52:06;;;;;;;8.02;3.05;;;11.70;93.70;;;;;;5106256;28;20103;-58
2023/09/14 05:54:31;;;;;;;8.85;2.88;;;11.70;88.90;;;;;;5105199;28;20048;-57
2023/09/14 05:56:57;;;;;;;6.85;2.95;;;11.80;90.40;;;;;;5105770;28;20495;-55
2023/09/14 05:59:23;;;;;;;9.25;2.97;;;11.90;90.30;;;;;;5106051;28;20051;-56
2023/09/14 06:01:50;;;;;;;7.90;2.60;;;11.90;90.60;;;;;;5104886;28;20044;-57
2023/09/14 06:04:16;;;;;;;8.70;2.78;;;11.90;85.30;;;;;;5106092;28;20051;-56
2023/09/14 06:06:42;;;;;;;11.55;3.20;;;11.90;83.10;;;;;;5103150;28;20083;-57
2023/09/14 06:09:08;;;;;;;8.40;2.40;;;11.90;75.60;;;;;;5106165;28;20059;-57
2023/09/14 06:11:34;;;;;;;6.53;2.63;;;12.00;66.50;;;;;;5105216;28;20111;-56
2023/09/14 06:13:59;;;;;;;6.80;2.33;;;12.00;71.80;;;;;;5105736;28;20055;-57
2023/09/14 06:16:25;;;;;;;6.97;2.65;;;12.10;64.10;;;;;;5105710;28;20035;-57
2023/09/14 06:18:51;;;;;;;10.85;2.75;;;12.10;65.60;;;;;;5104771;28;20043;-57
2023/09/14 06:21:18;;;;;;;7.93;2.10;;;12.10;59.20;;;;;;5106065;28;20074;-56
2023/09/14 06:23:44;;;;;;;7.03;2.60;;;12.00;50.50;;;;;;5104873;28;20052;-56
2023/09/14 06:26:10;;;;;;;7.60;3.47;;;12.20;54.40;;;;;;5105067;28;20051;-56
2023/09/14 06:28:36;;;;;;;7.22;2.35;;;12.20;52.70;;;;;;5086656;28;20100;-57
2023/09/14 06:31:02;;;;;;;6.97;2.50;;;12.20;49.30;;;;;;5105763;28;20044;-57
2023/09/14 06:33:28;;;;;;;6.80;2.47;;;12.30;48.40;;;;;;5105481;28;20056;-56
2023/09/14 06:35:54;;;;;;;10.63;2.50;;;12.40;51.40;;;;;;5104972;28;20465;-57
2023/09/14 06:38:20;;;;;;;7.85;2.60;;;12.40;43.80;;;;;;5106021;28;20040;-57
2023/09/14 06:40:45;;;;;;;6.53;2.25;;;12.60;43.90;;;;;;5102969;28;20036;-56
2023/09/14 06:43:11;;;;;;;7.03;2.53;;;12.50;32.70;;;;;;5103071;28;20040;-57
2023/09/14 06:45:37;;;;;;;7.28;2.35;;;12.60;36.70;;;;;;5101393;28;20036;-55
2023/09/14 06:48:02;;;;;;;9.18;2.47;;;12.70;36.40;;;;;;5102514;28;20084;-56
2023/09/14 06:50:28;;;;;;;8.15;2.72;;;12.80;35.90;;;;;;5100741;28;20052;-57
2023/09/14 06:52:54;;;;;;;6.68;2.30;;;12.80;31.00;;;;;;5101406;28;20119;-57
2023/09/14 06:55:20;;;;;;;6.10;2.30;;;12.90;35.20;;;;;;5102339;28;20059;-57
2023/09/14 06:57:46;;;;;;;7.60;2.30;;;12.90;34.10;;;;;;5101023;28;20040;-57
2023/09/14 07:00:16;;;;;;;6.97;2.28;;;13.00;27.00;;;;;;5102228;28;20051;-58
2023/09/14 07:02:45;;;;;;;5.80;2.17;;;13.10;24.40;;;;;;5101221;28;20040;-55
2023/09/14 07:05:11;;;;;;;9.13;2.67;;;13.20;23.20;;;;;;5102121;28;20124;-57
2023/09/14 07:07:38;;;;;;;8.43;1.90;;;13.20;19.90;;;;;;5101889;28;20048;-58
2023/09/14 07:10:04;;;;;;;8.48;2.10;;;13.30;17.00;;;;;;5101204;28;20075;-57
2023/09/14 07:12:30;;;;;;;8.82;2.05;;;13.40;17.20;;;;;;5101965;28;20056;-57
2023/09/14 07:14:56;;;;;;;6.88;2.25;;;13.50;12.40;;;;;;5100703;28;20044;-57
2023/09/14 07:17:21;;;;;;;8.13;2.08;;;13.50;14.00;;;;;;5102207;28;20439;-57
2023/09/14 07:19:48;;;;;;;9.10;1.80;;;13.60;10.60;;;;;;5100833;28;20090;-56
2023/09/14 07:22:13;;;;;;;7.28;1.63;;;13.60;9.30;;;;;;5101533;28;20040;-57
2023/09/14 07:24:39;;;;;;;6.43;2.00;;;13.80;9.60;;;;;;5101235;28;20039;-57
2023/09/14 07:27:05;;;;;;;5.78;1.67;;;13.90;10.60;;;;;;5100882;28;20060;-57
2023/09/14 07:29:31;;;;;;;8.32;1.70;;;13.90;6.90;;;;;;5101755;28;20044;-56
2023/09/14 07:31:57;;;;;;;9.25;2.08;;;14.00;9.60;;;;;;5100534;28;20086;-57
2023/09/14 07:34:23;;;;;;;5.65;1.83;;;14.10;7.30;;;;;;5100384;28;20060;-57
2023/09/14 07:36:49;;;;;;;5.07;1.77;;;14.20;3.30;;;;;;5100671;28;20096;-56
2023/09/14 07:39:15;;;;;;;7.25;1.90;;;14.30;6.40;;;;;;5101708;28;20075;-57
2023/09/14 07:41:41;;;;;;;6.25;1.52;;;14.40;2.90;;;;;;5100744;28;20055;-57
2023/09/14 07:44:07;;;;;;;7.22;1.67;;;14.60;2.60;;;;;;5100757;28;20036;-57
2023/09/14 07:46:33;;;;;;;6.07;2.00;;;14.60;1.00;;;;;;5101444;28;20055;-57
2023/09/14 07:48:59;;;;;;;8.45;1.67;;;14.60;1.00;;;;;;5100130;28;20055;-57
2023/09/14 07:51:25;;;;;;;7.65;1.42;;;14.70;3.50;;;;;;5100955;28;20032;-56
2023/09/14 07:53:53;;;;;;;5.93;1.80;;;14.90;1.00;;;;;;5099734;28;20048;-57
2023/09/14 07:56:22;;;;;;;8.65;1.30;;;15.00;1.00;;;;;;5101302;28;20062;-56
2023/09/14 07:58:48;;;;;;;6.13;1.50;;;14.90;1.00;;;;;;5100514;28;20071;-57
2023/09/14 08:01:14;;;;;;;5.18;1.42;;;14.90;1.00;;;;;;5100442;28;20392;-57
2023/09/14 08:03:39;;;;;;;7.35;1.42;;;15.00;1.00;;;;;;5101046;28;20092;-57
2023/09/14 08:06:05;;;;;;;5.18;1.30;;;15.00;1.00;;;;;;5099729;28;20078;-57
2023/09/14 08:08:33;;;;;;;5.65;1.10;;;15.10;1.00;;;;;;5100918;28;20132;-57
2023/09/14 08:11:00;;;;;;;5.53;1.40;;;15.20;1.00;;;;;;5099580;28;20052;-56
2023/09/14 08:13:26;;;;;;;5.55;1.20;;;15.20;1.00;;;;;;5101026;28;20095;-57
2023/09/14 08:15:52;;;;;;;6.15;1.42;;;15.30;1.00;;;;;;5099057;28;20072;-57
2023/09/14 08:18:19;;;;;;;12.57;2.00;;;15.30;1.00;;;;;;5100094;28;20095;-57
2023/09/14 08:20:44;;;;;;;5.45;1.25;;;15.30;1.00;;;;;;5100502;28;20500;-57
2023/09/14 08:23:12;;;;;;;7.70;1.48;;;15.40;1.00;;;;;;5099476;28;20094;-57
2023/09/14 08:25:43;;;;;;;7.30;1.50;;;15.40;1.00;;;;;;5100789;28;20070;-55
2023/09/14 08:28:10;;;;;;;8.35;1.50;;;15.40;1.00;;;;;;5099352;28;20075;-55
2023/09/14 08:30:37;;;;;;;17.20;2.35;;;15.50;1.00;;;;;;5100705;28;20048;-57
2023/09/14 08:33:03;;;;;;;5.32;1.38;;;15.40;1.00;;;;;;5100010;28;20044;-57
2023/09/14 08:35:31;;;;;;;5.25;1.20;;;15.50;1.00;;;;;;5099890;28;20076;-58
2023/09/14 08:37:57;;;;;;;5.88;1.40;;;15.40;1.00;;;;;;5099963;28;20052;-57
2023/09/14 08:40:24;;;;;;;6.50;1.50;;;15.50;1.00;;;;;;5098975;28;20395;-57
2023/09/14 08:42:52;;;;;;;6.85;1.40;;;15.60;1.00;;;;;;5100512;28;20036;-54
2023/09/14 08:45:38;;;;;;;8.57;1.48;;;15.60;1.00;;;;;;5099062;28;20108;-57
2023/09/14 08:48:05;;;;;;;5.75;1.30;;;15.60;1.00;;;;;;5100199;28;20423;-57
2023/09/14 08:50:34;;;;;;;5.72;1.50;;;15.80;1.00;;;;;;5099637;28;20046;-56
2023/09/14 08:53:01;;;;;;;5.38;1.15;;;16.00;1.00;;;;;;5098902;28;20091;-57
2023/09/14 08:55:33;;;;;;;9.27;1.38;;;16.20;1.00;;;;;;5100137;28;20039;-57
2023/09/14 08:57:58;;;;;;;;;;;16.30;1.00;;;;;;5099165;28;20071;-58
2023/09/14 09:00:29;;;;;;;6.97;1.40;;;16.40;1.00;;;;;;5100525;28;19946;-57
2023/09/14 09:02:56;;;;;;;6.78;1.30;;;16.40;1.00;;;;;;5099116;28;20078;-57
2023/09/14 09:05:24;;;;;;;6.30;1.50;;;16.50;1.00;;;;;;5099256;28;20493;-58
2023/09/14 09:07:52;;;;;;;4.85;1.27;;;16.50;1.00;;;;;;5099708;28;20051;-57
2023/09/14 09:10:23;;;;;;;7.10;1.48;;;16.50;1.00;;;;;;5098883;28;20054;-57
2023/09/14 09:12:55;;;;;;;7.68;1.95;;;16.60;1.00;;;;;;5099925;28;20047;-56
2023/09/14 09:15:24;;;;;;;7.22;1.70;;;16.70;1.00;;;;;;5098526;28;20083;-57
2023/09/14 09:17:53;;;;;;;6.47;1.42;;;16.80;1.00;;;;;;5099915;28;20044;-58
2023/09/14 09:20:24;;;;;;;7.63;1.35;;;16.80;1.00;;;;;;5099022;28;20052;-56
2023/09/14 09:22:56;;;;;;;6.55;1.33;;;17.00;1.00;;;;;;5097445;28;20050;-58
2023/09/14 09:25:22;;;;;;;;;;;17.30;1.00;;;;;;5100219;28;20466;-57
2023/09/14 09:27:56;;;;;;;9.15;1.42;;;17.30;1.00;;;;;;5098577;28;19928;-57
2023/09/14 09:30:28;;;;;;;7.57;1.95;;;17.40;1.00;;;;;;5099983;28;20040;-57
2023/09/14 09:32:58;;;;;;;5.22;1.88;;;17.30;1.00;;;;;;5098664;28;20101;-56
2023/09/14 09:35:26;;;;;;;7.90;1.50;;;17.40;1.00;;;;;;5098980;28;20090;-57
2023/09/14 09:37:54;;;;;;;7.40;1.63;;;17.50;1.00;;;;;;5099563;28;20043;-57
2023/09/14 09:40:23;;;;;;;8.30;1.60;;;17.40;1.00;;;;;;5098417;28;20040;-56
2023/09/14 09:42:50;;;;;;;7.55;1.40;;;17.30;1.00;;;;;;5099502;28;20104;-57
2023/09/14 09:45:18;;;;;;;6.68;1.50;;;17.50;1.00;;;;;;5098487;28;20033;-57
2023/09/14 09:47:45;;;;;;;6.45;1.50;;;17.60;1.00;;;;;;5100000;28;20036;-57
2023/09/14 09:50:13;;;;;;;6.90;1.88;;;17.60;1.00;;;;;;5097311;28;20044;-57
2023/09/14 09:52:41;;;;;;;8.57;1.52;;;17.60;1.00;;;;;;5098714;28;20051;-57
2023/09/14 09:55:15;;;;;;;6.28;1.58;;;17.60;1.00;;;;;;5099126;28;20047;-56
2023/09/14 09:57:51;;;;;;;5.70;1.40;;;17.70;1.00;;;;;;5098139;28;20044;-57
2023/09/14 10:00:19;;;;;;;6.85;1.52;;;17.70;1.00;;;;;;5099303;28;20075;-58
2023/09/14 10:02:52;;;;;;;6.25;1.40;;;17.80;1.00;;;;;;5098602;28;20040;-57
2023/09/14 10:05:27;;;;;;;7.95;1.85;;;17.50;1.00;;;;;;5099292;28;20040;-57
2023/09/14 10:07:53;;;;;;;8.25;1.60;;;17.40;1.00;;;;;;5098031;28;20076;-57
2023/09/14 10:10:24;;;;;;;6.38;1.50;;;17.70;1.00;;;;;;5098371;28;20074;-57
2023/09/14 10:12:52;;;;;;;6.33;2.43;;;17.70;1.00;;;;;;5099572;28;20036;-57
2023/09/14 10:15:19;;;;;;;6.53;1.77;;;17.80;1.00;;;;;;5099365;28;20087;-57
2023/09/14 10:17:51;;;;;;;7.00;1.70;;;18.00;1.00;;;;;;5103275;28;20048;-56
2023/09/14 10:20:17;;;;;;;7.00;1.60;;;18.00;1.00;;;;;;5102387;28;20112;-57
2023/09/14 10:22:44;;;;;;;5.93;2.00;;;18.00;1.00;;;;;;5102329;28;20036;-57
2023/09/14 10:25:10;;;;;;;6.57;1.50;;;18.20;1.00;;;;;;5102901;28;20048;-56
2023/09/14 10:27:38;;;;;;;5.55;1.50;;;18.00;1.00;;;;;;5101567;28;20040;-57
2023/09/14 10:30:05;;;;;;;7.38;2.05;;;18.20;1.00;;;;;;5103137;28;20431;-57
2023/09/14 10:32:34;;;;;;;6.80;1.75;;;18.30;1.00;;;;;;5101711;28;20119;-56
2023/09/14 10:35:01;;;;;;;7.40;1.73;;;18.40;1.00;;;;;;5102790;28;20158;-57
2023/09/14 10:37:28;;;;;;;6.75;1.80;;;18.40;1.00;;;;;;5102085;28;20068;-55
2023/09/14 10:39:55;;;;;;;7.93;1.98;;;18.50;1.00;;;;;;5101688;28;20050;-56
2023/09/14 10:42:21;;;;;;;8.60;2.22;;;18.60;1.00;;;;;;5102285;28;20040;-57
2023/09/14 10:44:47;;;;;;;5.68;1.70;;;18.80;1.00;;;;;;5101074;28;20048;-57
2023/09/14 10:47:16;;;;;;;7.18;2.10;;;18.80;1.00;;;;;;5102357;28;20044;-57
2023/09/14 10:49:43;;;;;;;7.22;1.63;;;18.60;1.00;;;;;;5101008;28;20040;-57
2023/09/14 10:52:08;;;;;;;11.02;2.03;;;18.80;1.00;;;;;;5102290;28;20048;-57
2023/09/14 10:54:35;;;;;;;7.68;1.98;;;18.80;1.00;;;;;;5101406;28;20054;-56
2023/09/14 10:57:10;;;;;;;6.63;1.40;;;18.90;1.00;;;;;;5101170;28;20047;-57
2023/09/14 10:59:50;;;;;;;5.65;1.58;;;18.60;1.00;;;;;;5102042;28;20552;-58
2023/09/14 11:02:37;;;;;;;6.15;2.10;;;18.50;1.00;;;;;;5100974;28;20048;-58
2023/09/14 11:05:16;;;;;;;8.95;3.38;;;18.30;1.00;;;;;;5101907;28;20117;-57
2023/09/14 11:07:47;;;;;;;7.47;1.85;;;18.40;1.00;;;;;;5100301;28;20060;-57
2023/09/14 11:10:17;;;;;;;6.57;1.90;;;18.50;1.00;;;;;;5100831;28;20048;-57
2023/09/14 11:12:44;;;;;;;6.40;1.83;;;18.40;1.00;;;;;;5102178;28;20058;-57
2023/09/14 11:15:23;;;;;;;7.93;2.05;;;18.60;1.00;;;;;;5100926;28;20081;-57
2023/09/14 11:17:53;;;;;;;8.55;2.13;;;18.80;1.00;;;;;;5102129;28;20077;-56
2023/09/14 11:20:27;;;;;;;8.07;2.13;;;18.90;1.00;;;;;;5100993;28;20062;-58
2023/09/14 11:23:00;;;;;;;7.75;2.50;;;18.90;1.00;;;;;;5100972;28;20044;-57
2023/09/14 11:25:31;;;;;;;7.82;2.25;;;19.00;1.00;;;;;;5101865;28;20082;-57
2023/09/14 11:27:57;;;;;;;7.82;2.00;;;18.80;1.00;;;;;;5099445;28;20036;-57
2023/09/14 11:30:27;;;;;;;6.95;1.90;;;18.30;1.00;;;;;;5101675;28;20048;-58
2023/09/14 11:32:54;;;;;;;7.63;1.90;;;18.10;1.00;;;;;;5100731;28;20094;-55
2023/09/14 11:35:39;;;;;;;7.90;2.08;;;18.30;1.00;;;;;;5101130;28;20044;-57
2023/09/14 11:38:15;;;;;;;6.20;1.98;;;18.40;1.00;;;;;;5101495;28;20032;-57
2023/09/14 11:40:41;;;;;;;9.63;2.05;;;18.70;1.00;;;;;;5100280;28;20541;-58
2023/09/14 11:43:07;;;;;;;6.80;1.85;;;18.90;1.00;;;;;;5101355;28;20097;-58
2023/09/14 11:45:39;;;;;;;8.50;2.10;;;19.20;1.00;;;;;;5099902;28;20036;-58
2023/09/14 11:48:13;;;;;;;6.40;2.22;;;19.20;1.00;;;;;;5100825;28;20044;-57
2023/09/14 11:50:41;;;;;;;10.15;2.72;;;19.00;1.00;;;;;;5100765;28;20043;-57
2023/09/14 11:53:08;;;;;;;8.70;1.90;;;19.10;1.00;;;;;;5099852;28;20055;-56
2023/09/14 11:55:34;;;;;;;8.68;2.00;;;19.20;1.00;;;;;;5101017;28;20103;-57
2023/09/14 11:58:01;;;;;;;7.78;1.88;;;19.30;1.00;;;;;;5099568;28;20056;-57
2023/09/14 12:00:36;;;;;;;8.75;2.13;;;19.40;1.00;;;;;;5101037;28;20043;-57
2023/09/14 12:03:02;;;;;;;6.55;2.15;;;19.60;1.00;;;;;;5100091;28;20107;-56
2023/09/14 12:05:28;;;;;;;7.05;1.80;;;19.60;1.00;;;;;;5100052;28;20032;-58
2023/09/14 12:07:54;;;;;;;7.10;2.17;;;19.70;1.00;;;;;;5099209;28;20051;-57
2023/09/14 12:10:21;;;;;;;7.10;1.90;;;19.60;1.00;;;;;;5099271;28;20073;-57
2023/09/14 12:12:47;;;;;;;8.07;2.03;;;19.80;1.00;;;;;;5101003;28;20048;-57
2023/09/14 12:15:20;;;;;;;9.02;2.00;;;20.00;1.00;;;;;;5099407;28;20526;-57
2023/09/14 12:17:54;;;;;;;8.88;1.98;;;20.00;1.00;;;;;;5101079;28;20066;-57
2023/09/14 12:20:21;;;;;;;8.13;2.10;;;19.80;1.00;;;;;;5100312;28;20255;-57
2023/09/14 12:22:47;;;;;;;7.82;2.28;;;19.80;1.00;;;;;;5098861;28;20051;-57
2023/09/14 12:25:14;;;;;;;7.28;2.30;;;19.70;1.00;;;;;;5100385;28;20510;-57
2023/09/14 12:27:41;;;;;;;11.93;2.22;;;19.90;1.00;;;;;;5099472;28;20043;-56
2023/09/14 12:30:09;;;;;;;9.82;2.45;;;19.70;1.00;;;;;;5099543;28;20130;-57
2023/09/14 12:32:38;;;;;;;9.00;2.22;;;19.40;1.00;;;;;;5099320;28;20062;-57
2023/09/14 12:35:05;;;;;;;6.60;2.30;;;19.30;1.00;;;;;;5098687;28;20040;-57
2023/09/14 12:37:32;;;;;;;7.38;2.40;;;19.50;1.00;;;;;;5099983;28;20463;-57
2023/09/14 12:40:10;;;;;;;7.00;2.15;;;19.70;1.00;;;;;;5097799;28;20051;-57
2023/09/14 12:42:36;;;;;;;8.07;2.13;;;19.80;1.00;;;;;;5100369;28;20078;-56
2023/09/14 12:45:07;;;;;;;8.73;1.98;;;19.90;1.00;;;;;;5098860;28;20089;-57
2023/09/14 12:47:33;;;;;;;8.60;2.17;;;20.00;1.00;;;;;;5100137;28;20051;-57
2023/09/14 12:49:59;;;;;;;8.77;2.03;;;19.90;1.00;;;;;;5098964;28;20040;-55
2023/09/14 12:52:28;;;;;;;6.90;2.13;;;20.10;1.00;;;;;;5098448;28;20040;-57